Pagina principale
METAR-TAF:

METAR-TAF

Aeroporti :

Aeroporto di Trapani-Birgi

Trapani, Italia

latitudine: 37-55N, longitudine: 012-30E, altezza: 7 m

Osservazione

Il bollettino è stato emesso 1 ora e 7 minuti fa, alle 11:55 UTC
Vento 6 kt da ovest/sud-ovest
Temperature 17°C
Umidità 82%
Pressione 1023 hPa
Visibilità 10 km o più
Poco nuvoloso ad un'altezza di 1800 ft

METAR: LICT 061155Z 25006KT 9999 FEW018 17/14 Q1023 RMK BKN BKN200 VIS MIN 9999 WIND THR13 23004KT BLU

Ora: 14:02 (13:02 UTC)

Previsione

Il bollettino è stato emesso 2 ore e 2 minuti fa, alle 11:00 UTC
Previsione valida dal 06 alle 12 UTC al 06 alle 21 UTC
Vento 4 kt da direzioni variabili
Visibilità 10 km o più
Poco nuvoloso ad un'altezza di 2000 ft

TAF: LICT 061100Z 0612/0621 VRB04KT 9999 FEW020

Osservazioni e previsioni meteorologiche di più di 4000 aeroporti (messaggi METAR e TAF).

Le stazioni disponibili sono rappresentate dai dischi gialli e rossi sulla carta.

Puntare il mouse per vedere il nome della stazione.

Clicca sopra per visualizzare le osservazioni e previsioni meteorologiche.

Per cambiare la mappa : fare clic sui pulsanti verdi con una croce nera per ingrandire, il pulsante verde con un trattino per diminuire, o sulla freccia verde per le mappe adiacenti.


METAR-TAF: